createdAt,value
2022-10-05T03:48:43.674Z,7.14
2022-10-05T03:51:51.333Z,7.19
2022-10-05T03:54:59.802Z,7.05
2022-10-05T03:58:27.479Z,7.00
2022-10-05T04:01:39.183Z,7.04
2022-10-05T04:05:03.225Z,7.28
2022-10-05T04:08:19.554Z,7.17
2022-10-05T04:11:32.510Z,7.04
2022-10-05T04:14:41.662Z,7.02
2022-10-05T04:17:48.818Z,7.05
2022-10-05T04:20:56.149Z,6.99
2022-10-05T04:24:01.077Z,6.87
2022-10-05T04:27:19.812Z,6.80
2022-10-05T04:30:22.737Z,6.82
2022-10-05T04:33:27.487Z,6.93
2022-10-05T04:36:45.892Z,6.94
2022-10-05T04:40:03.697Z,7.10
2022-10-05T04:43:36.062Z,7.11
2022-10-05T04:47:02.076Z,7.03
2022-10-05T04:50:11.945Z,6.89
2022-10-05T04:53:44.153Z,7.05
2022-10-05T04:56:52.895Z,7.03
2022-10-05T05:00:09.553Z,6.99
2022-10-05T05:03:50.237Z,6.96
2022-10-05T05:07:00.375Z,6.91
2022-10-05T05:10:24.199Z,6.98
2022-10-05T05:13:45.356Z,7.04
2022-10-05T05:17:12.903Z,6.96
2022-10-05T05:20:31.066Z,6.96
2022-10-05T05:23:46.418Z,6.95
2022-10-05T05:27:00.847Z,6.91
2022-10-05T05:30:18.786Z,6.96
2022-10-05T05:33:27.271Z,6.99
2022-10-05T05:36:41.437Z,7.07
2022-10-05T05:40:03.887Z,7.28
2022-10-05T05:43:24.204Z,7.28
2022-10-05T05:47:05.262Z,7.18
2022-10-05T05:50:33.689Z,7.14
2022-10-05T05:53:45.454Z,7.15
2022-10-05T05:57:00.022Z,7.22
2022-10-05T06:00:08.113Z,7.28
2022-10-05T06:03:34.171Z,7.58
2022-10-05T06:06:42.265Z,7.75
2022-10-05T06:09:51.522Z,7.85
2022-10-05T06:13:01.502Z,8.01
2022-10-05T06:16:11.085Z,8.08
2022-10-05T06:19:19.247Z,8.16
2022-10-05T06:22:28.549Z,8.31
2022-10-05T06:25:44.423Z,8.39
2022-10-05T06:28:57.855Z,8.45
2022-10-05T06:32:16.813Z,8.49
2022-10-05T06:35:29.219Z,8.62
2022-10-05T06:38:40.229Z,8.75
2022-10-05T06:42:04.531Z,8.94
2022-10-05T06:45:41.538Z,9.20
2022-10-05T06:49:08.909Z,9.48
2022-10-05T06:52:34.346Z,9.69
2022-10-05T06:56:10.187Z,9.80
2022-10-05T06:59:38.955Z,9.91
2022-10-05T07:03:00.413Z,10.36
2022-10-05T07:06:35.021Z,10.39
2022-10-05T07:10:04.889Z,10.61
2022-10-05T07:13:52.474Z,10.77
2022-10-05T07:17:29.573Z,10.83
2022-10-05T07:20:49.513Z,11.01
2022-10-05T07:24:34.521Z,11.12
2022-10-05T07:28:07.195Z,11.20
2022-10-05T07:31:19.044Z,11.29
2022-10-05T07:34:44.717Z,11.35
2022-10-05T07:37:55.428Z,11.66
2022-10-05T07:41:32.187Z,11.72
2022-10-05T07:44:48.241Z,11.88
2022-10-05T07:47:54.942Z,11.99
2022-10-05T07:51:04.663Z,12.02
2022-10-05T07:54:23.250Z,12.16
2022-10-05T07:58:00.753Z,12.43
2022-10-05T08:01:26.155Z,12.57
2022-10-05T08:04:41.582Z,12.72
2022-10-05T08:07:45.016Z,12.89
2022-10-05T08:11:02.405Z,13.03
2022-10-05T08:14:23.570Z,13.21
2022-10-05T08:17:32.045Z,13.09
2022-10-05T08:20:54.938Z,13.27
2022-10-05T08:24:06.784Z,13.30
2022-10-05T08:27:20.419Z,13.39
2022-10-05T08:30:23.657Z,13.68
2022-10-05T08:33:31.493Z,13.74
2022-10-05T08:37:05.818Z,13.74
2022-10-05T08:40:37.097Z,13.93
2022-10-05T08:43:57.993Z,14.17
2022-10-05T08:47:03.017Z,14.23
2022-10-05T08:50:23.047Z,14.37
2022-10-05T08:53:59.603Z,14.61
2022-10-05T08:57:11.010Z,14.49
2022-10-05T09:00:19.615Z,14.48
2022-10-05T09:03:37.921Z,14.41
2022-10-05T09:06:50.983Z,14.39
2022-10-05T09:09:59.539Z,14.50
2022-10-05T09:13:28.670Z,14.54
2022-10-05T09:17:06.680Z,14.67
2022-10-05T09:20:30.806Z,14.84
2022-10-05T09:23:39.420Z,15.13
2022-10-05T09:26:45.365Z,15.33
2022-10-05T09:29:50.660Z,15.36
2022-10-05T09:33:27.567Z,15.53
2022-10-05T09:37:01.710Z,15.78
2022-10-05T09:40:32.725Z,15.88
2022-10-05T09:43:57.811Z,16.14
2022-10-05T09:47:09.443Z,16.29
2022-10-05T09:50:38.010Z,16.49
2022-10-05T09:53:52.396Z,16.52
2022-10-05T09:57:21.526Z,16.53
2022-10-05T10:00:32.345Z,16.61
2022-10-05T10:03:53.381Z,16.38
2022-10-05T10:07:14.139Z,16.37
2022-10-05T10:10:31.505Z,16.18
2022-10-05T10:13:55.720Z,16.13
2022-10-05T10:17:55.593Z,16.10
2022-10-05T10:21:25.246Z,16.29
2022-10-05T10:24:33.680Z,16.44
2022-10-05T10:27:58.461Z,16.43
2022-10-05T10:31:06.447Z,16.57
2022-10-05T10:34:39.979Z,16.77
2022-10-05T10:38:06.023Z,16.95
2022-10-05T10:41:13.971Z,16.90
2022-10-05T10:44:31.441Z,16.93
2022-10-05T10:47:48.140Z,16.82
2022-10-05T10:50:53.127Z,16.74
2022-10-05T10:54:06.781Z,16.77
2022-10-05T10:57:16.846Z,16.68
2022-10-05T11:00:47.308Z,16.77
2022-10-05T11:04:36.207Z,17.10
2022-10-05T11:08:06.197Z,17.09
2022-10-05T11:11:25.777Z,17.05
2022-10-05T11:14:46.369Z,17.07
2022-10-05T11:17:58.163Z,16.96
2022-10-05T11:21:36.601Z,17.06
2022-10-05T11:25:14.221Z,17.17
2022-10-05T11:28:49.599Z,17.29
2022-10-05T11:32:14.394Z,17.48
2022-10-05T11:35:31.682Z,17.50
2022-10-05T11:38:39.705Z,17.30
2022-10-05T11:41:56.836Z,17.33
2022-10-05T11:45:37.974Z,17.58
2022-10-05T11:48:42.881Z,17.53
2022-10-05T11:51:57.282Z,17.56
2022-10-05T11:55:17.097Z,17.60
2022-10-05T11:58:27.209Z,17.63
2022-10-05T12:01:37.935Z,17.77
2022-10-05T12:04:52.120Z,17.82
2022-10-05T12:08:19.362Z,17.94
2022-10-05T12:11:58.059Z,18.12
2022-10-05T12:15:08.743Z,18.15
2022-10-05T12:18:16.932Z,18.20
2022-10-05T12:21:39.338Z,18.18
2022-10-05T12:25:02.945Z,18.25
2022-10-05T12:28:11.010Z,18.25
2022-10-05T12:31:30.152Z,18.19
2022-10-05T12:35:03.354Z,18.17
2022-10-05T12:38:20.229Z,18.24
2022-10-05T12:41:30.182Z,18.38
2022-10-05T12:45:29.032Z,18.42
2022-10-05T12:48:43.716Z,18.52
2022-10-05T12:51:54.658Z,18.61
2022-10-05T12:55:01.684Z,18.55
2022-10-05T12:58:16.984Z,18.52
2022-10-05T13:01:25.861Z,18.48
2022-10-05T13:04:38.366Z,18.40
2022-10-05T13:08:04.473Z,18.47
2022-10-05T13:11:19.406Z,18.39
2022-10-05T13:14:48.687Z,18.41
2022-10-05T13:17:57.803Z,18.34
2022-10-05T13:21:05.776Z,18.25
2022-10-05T13:24:29.758Z,18.14
2022-10-05T13:27:40.720Z,18.12
2022-10-05T13:30:54.330Z,18.15
2022-10-05T13:34:06.572Z,18.28
2022-10-05T13:37:11.639Z,18.26
2022-10-05T13:40:35.878Z,18.25
2022-10-05T13:44:00.846Z,18.34
2022-10-05T13:47:20.845Z,18.43
2022-10-05T13:50:42.751Z,18.23
2022-10-05T13:53:49.225Z,18.31
2022-10-05T13:57:15.504Z,18.28
2022-10-05T14:00:27.013Z,18.22
2022-10-05T14:03:42.126Z,18.28
2022-10-05T14:06:56.701Z,18.25
2022-10-05T14:10:01.183Z,18.15
2022-10-05T14:13:12.745Z,18.04
2022-10-05T14:16:23.228Z,18.00
2022-10-05T14:19:33.196Z,18.00
2022-10-05T14:22:42.086Z,17.94
2022-10-05T14:25:53.657Z,17.97
2022-10-05T14:29:02.062Z,17.90
2022-10-05T14:32:18.584Z,17.98
2022-10-05T14:35:22.135Z,17.97
2022-10-05T14:38:28.598Z,17.86
2022-10-05T14:41:36.229Z,17.81
2022-10-05T14:44:38.156Z,17.77
2022-10-05T14:47:49.006Z,17.70
2022-10-05T14:50:57.611Z,17.68
2022-10-05T14:54:16.214Z,17.60
2022-10-05T14:57:32.017Z,17.52
2022-10-05T15:00:48.846Z,17.38
2022-10-05T15:04:02.904Z,17.41
2022-10-05T15:07:24.798Z,17.30
2022-10-05T15:10:56.404Z,17.24
2022-10-05T15:14:00.254Z,17.25
2022-10-05T15:17:12.582Z,17.18
2022-10-05T15:20:24.800Z,17.26
2022-10-05T15:23:42.983Z,17.16
2022-10-05T15:26:53.269Z,17.04
2022-10-05T15:30:09.174Z,16.85
2022-10-05T15:33:24.544Z,16.69
2022-10-05T15:36:43.081Z,16.66
